createdAt,value
2022-11-18T00:24:27.000Z,55.93
2022-11-18T00:54:30.051Z,55.81
2022-11-18T01:24:33.025Z,54.07
2022-11-18T01:54:35.998Z,54.98
2022-11-18T02:24:39.376Z,57.55
2022-11-18T02:54:42.344Z,54.79
2022-11-18T03:24:46.377Z,55.26
2022-11-18T03:54:49.224Z,54.15
2022-11-18T04:24:52.398Z,56.78
2022-11-18T04:54:55.721Z,55.25
2022-11-18T05:24:58.903Z,55.02
2022-11-18T05:55:02.290Z,56.06
2022-11-18T06:25:05.302Z,55.52
2022-11-18T06:55:08.796Z,56.18
2022-11-18T07:25:12.300Z,55.71
2022-11-18T07:55:15.515Z,55.74
2022-11-18T08:25:19.397Z,53.84
2022-11-18T08:55:22.462Z,51.21
2022-11-18T09:25:26.110Z,49.26
2022-11-18T09:55:29.365Z,50.25
2022-11-18T10:25:32.568Z,47.01
2022-11-18T10:55:36.065Z,48.79
2022-11-18T11:56:02.705Z,54.42
2022-11-18T12:26:08.416Z,50.55
2022-11-18T12:56:11.247Z,53.48
2022-11-18T13:26:15.035Z,51.11
2022-11-18T13:56:17.963Z,48.24
2022-11-18T14:26:21.872Z,51.57
2022-11-18T14:56:24.669Z,47.91
2022-11-18T15:26:27.925Z,46.73
2022-11-18T15:56:30.882Z,51.36
2022-11-18T16:26:34.525Z,52.17
2022-11-18T16:56:38.036Z,52.18
2022-11-18T17:26:42.586Z,51.75
2022-11-18T17:56:46.366Z,48.50
2022-11-18T18:26:49.906Z,47.26
2022-11-18T18:56:52.762Z,48.60
2022-11-18T19:26:56.781Z,50.85
2022-11-18T19:56:59.721Z,53.13
2022-11-18T20:27:04.572Z,52.90
2022-11-18T20:57:07.496Z,51.94
2022-11-18T21:27:12.545Z,50.54
2022-11-18T21:57:15.745Z,49.96
2022-11-18T22:27:19.362Z,48.87
2022-11-18T22:57:22.394Z,48.48
2022-11-18T23:27:25.586Z,49.75
2022-11-18T23:57:29.291Z,49.51
